createdAt,value
2019-05-09T00:01:33.624Z,98863.23
2019-05-09T00:04:04.385Z,98861.86
2019-05-09T00:06:34.967Z,98858.88
2019-05-09T00:09:06.746Z,98859.96
2019-05-09T00:11:37.411Z,98849.13
2019-05-09T00:14:08.051Z,98862.96
2019-05-09T00:16:38.674Z,98872.91
2019-05-09T00:19:10.664Z,98880.63
2019-05-09T00:21:43.702Z,98889.09
2019-05-09T00:24:14.390Z,98891.66
2019-05-09T00:26:45.116Z,98892.25
2019-05-09T00:29:33.502Z,98890.42
2019-05-09T00:32:06.134Z,98898.48
2019-05-09T00:34:38.323Z,98894.67
2019-05-09T00:37:10.347Z,98893.33
2019-05-09T00:39:43.313Z,98892.84
2019-05-09T00:42:13.818Z,98882.23
2019-05-09T00:44:49.475Z,98889.87
2019-05-09T00:47:24.652Z,98890.08
2019-05-09T00:49:55.332Z,98891.91
2019-05-09T00:52:27.726Z,98886.76
2019-05-09T00:54:58.353Z,98881.63
2019-05-09T00:57:36.084Z,98880.20
2019-05-09T01:00:10.392Z,98878.80
2019-05-09T01:02:43.377Z,98871.23
2019-05-09T01:05:14.435Z,98872.59
2019-05-09T01:07:45.078Z,98864.55
2019-05-09T01:10:16.361Z,98854.67
2019-05-09T01:12:48.327Z,98856.52
2019-05-09T01:15:19.034Z,98859.53
2019-05-09T01:17:49.712Z,98858.31
2019-05-09T01:20:24.168Z,98852.75
2019-05-09T01:22:54.552Z,98850.08
2019-05-09T01:25:25.868Z,98852.34
2019-05-09T01:27:58.119Z,98850.37
2019-05-09T01:30:28.841Z,98855.52
2019-05-09T01:33:03.992Z,98843.76
2019-05-09T01:35:34.669Z,98852.13
2019-05-09T01:38:05.800Z,98843.30
2019-05-09T01:40:39.510Z,98849.96
2019-05-09T01:43:10.211Z,98836.57
2019-05-09T01:45:43.040Z,98835.47
2019-05-09T01:48:14.115Z,98846.98
2019-05-09T01:50:44.953Z,98846.48
2019-05-09T01:53:17.117Z,98847.52
2019-05-09T01:56:03.742Z,98841.22
2019-05-09T01:58:34.744Z,98843.06
2019-05-09T02:01:07.087Z,98839.45
2019-05-09T02:03:37.742Z,98838.03
2019-05-09T02:06:08.520Z,98839.05
2019-05-09T02:08:40.785Z,98838.33
2019-05-09T02:11:13.282Z,98839.88
2019-05-09T02:13:44.300Z,98841.93
2019-05-09T02:16:16.573Z,98843.48
2019-05-09T02:18:53.497Z,98841.22
2019-05-09T02:21:24.222Z,98845.32
2019-05-09T02:23:54.991Z,98842.13
2019-05-09T02:26:25.639Z,98831.72
2019-05-09T02:28:56.315Z,98829.67
2019-05-09T02:31:26.902Z,98829.05
2019-05-09T02:33:57.537Z,98827.94
2019-05-09T02:36:29.618Z,98826.39
2019-05-09T02:39:00.344Z,98821.88
2019-05-09T02:41:31.027Z,98822.47
2019-05-09T02:44:01.623Z,98820.74
2019-05-09T02:46:33.861Z,98816.70
2019-05-09T02:49:04.660Z,98823.69
2019-05-09T02:51:38.415Z,98827.20
2019-05-09T02:54:09.887Z,98821.55
2019-05-09T02:56:40.414Z,98820.72
2019-05-09T02:59:12.617Z,98817.95
2019-05-09T03:02:00.182Z,98815.66
2019-05-09T03:04:30.806Z,98818.34
2019-05-09T03:07:01.352Z,98816.61
2019-05-09T03:09:31.948Z,98812.89
2019-05-09T03:12:21.149Z,98812.98
2019-05-09T03:14:34.786Z,98800.63
2019-05-09T03:17:08.489Z,98803.23
2019-05-09T03:19:38.615Z,98800.63
2019-05-09T03:22:20.405Z,98797.24
2019-05-09T03:24:51.129Z,98790.75
2019-05-09T03:27:35.664Z,98796.49
2019-05-09T03:30:11.994Z,98799.30
2019-05-09T03:32:41.115Z,98793.53
2019-05-09T03:35:11.751Z,98786.12
2019-05-09T03:37:42.339Z,98785.19
2019-05-09T03:40:13.102Z,98788.59
2019-05-09T03:42:43.940Z,98791.14
2019-05-09T03:45:18.208Z,98787.55
2019-05-09T03:47:58.184Z,98791.67
2019-05-09T03:50:28.458Z,98788.07
2019-05-09T03:52:58.982Z,98787.36
2019-05-09T03:55:32.818Z,98790.54
2019-05-09T03:58:10.904Z,98788.19
2019-05-09T04:00:41.590Z,98790.25
2019-05-09T04:03:12.508Z,98793.76
2019-05-09T04:05:55.511Z,98794.05
2019-05-09T04:08:19.137Z,98800.12
2019-05-09T04:10:52.443Z,98799.30
2019-05-09T04:13:25.195Z,98803.19
2019-05-09T04:15:58.080Z,98800.72
2019-05-09T04:18:29.401Z,98800.12
2019-05-09T04:20:59.991Z,98801.77
2019-05-09T04:23:30.580Z,98799.92
2019-05-09T04:26:02.753Z,98799.59
2019-05-09T04:28:33.742Z,98791.77
2019-05-09T04:31:04.315Z,98790.97
2019-05-09T04:33:34.933Z,98788.99
2019-05-09T04:36:05.532Z,98788.91
2019-05-09T04:38:39.784Z,98788.91
2019-05-09T04:41:08.434Z,98792.38
2019-05-09T04:43:40.650Z,98784.17
2019-05-09T04:46:12.928Z,98789.83
2019-05-09T04:48:43.562Z,98781.08
2019-05-09T04:51:15.422Z,98794.25
2019-05-09T04:53:47.969Z,98795.38
2019-05-09T04:56:20.373Z,98795.80
2019-05-09T04:58:50.952Z,98795.05
2019-05-09T05:01:23.152Z,98798.13
2019-05-09T05:03:57.311Z,98794.20
2019-05-09T05:06:28.187Z,98793.79
2019-05-09T05:08:58.980Z,98794.82
2019-05-09T05:11:29.693Z,98795.24
2019-05-09T05:14:03.265Z,98791.81
2019-05-09T05:16:38.938Z,98785.16
2019-05-09T05:19:09.258Z,98784.03
2019-05-09T05:21:40.179Z,98783.70
2019-05-09T05:24:12.368Z,98775.04
2019-05-09T05:26:43.012Z,98777.42
2019-05-09T05:29:13.837Z,98776.38
2019-05-09T05:31:47.759Z,98774.13
2019-05-09T05:34:22.417Z,98779.81
2019-05-09T05:36:53.031Z,98780.30
2019-05-09T05:39:23.736Z,98791.73
2019-05-09T05:41:55.055Z,98785.03
2019-05-09T05:44:28.094Z,98785.38
2019-05-09T05:47:02.704Z,98780.73
2019-05-09T05:49:33.355Z,98779.19
2019-05-09T05:52:03.993Z,98789.06
2019-05-09T05:54:34.665Z,98784.26
2019-05-09T05:57:05.263Z,98774.88
2019-05-09T05:59:40.392Z,98776.73
2019-05-09T06:02:08.860Z,98785.94
2019-05-09T06:04:42.202Z,98782.40
2019-05-09T06:07:12.818Z,98787.25
2019-05-09T06:09:43.423Z,98784.23
2019-05-09T06:12:14.063Z,98778.82
2019-05-09T06:14:45.480Z,98777.98
2019-05-09T06:17:18.100Z,98770.58
2019-05-09T06:19:48.486Z,98771.58
2019-05-09T06:22:19.108Z,98782.20
2019-05-09T06:24:49.740Z,98785.59
2019-05-09T06:27:20.923Z,98785.47
2019-05-09T06:29:51.634Z,98788.86
2019-05-09T06:32:22.508Z,98796.11
2019-05-09T06:34:53.101Z,98790.09
2019-05-09T06:37:23.861Z,98790.80
2019-05-09T06:39:54.490Z,98794.27
2019-05-09T06:42:25.548Z,98783.99
2019-05-09T06:44:58.441Z,98783.05
2019-05-09T06:47:33.756Z,98784.74
2019-05-09T06:50:08.077Z,98785.61
2019-05-09T06:52:38.801Z,98786.25
2019-05-09T06:55:09.506Z,98792.30
2019-05-09T06:57:42.824Z,98783.68
2019-05-09T07:00:20.595Z,98779.53
2019-05-09T07:03:00.876Z,98777.81
2019-05-09T07:05:35.913Z,98778.48
2019-05-09T07:08:08.268Z,98778.80
2019-05-09T07:10:38.876Z,98773.09
2019-05-09T07:13:09.650Z,98781.63
2019-05-09T07:15:40.374Z,98770.06
2019-05-09T07:18:10.967Z,98772.48
2019-05-09T07:20:41.562Z,98774.61
2019-05-09T07:23:12.282Z,98784.45
2019-05-09T07:25:44.516Z,98782.02
2019-05-09T07:28:15.086Z,98787.69
2019-05-09T07:30:50.339Z,98782.92
2019-05-09T07:33:38.714Z,98786.10
2019-05-09T07:36:09.300Z,98789.03
2019-05-09T07:38:39.848Z,98781.47
2019-05-09T07:41:10.646Z,98790.76
2019-05-09T07:43:42.150Z,98791.24
2019-05-09T07:46:14.385Z,98780.46
2019-05-09T07:48:48.351Z,98783.55
2019-05-09T07:51:18.858Z,98776.81
2019-05-09T07:53:49.726Z,98772.50
2019-05-09T07:56:20.731Z,98782.75
2019-05-09T07:58:51.518Z,98777.10
2019-05-09T08:01:22.753Z,98790.09
2019-05-09T08:03:54.028Z,98799.50
2019-05-09T08:06:24.707Z,98796.84
2019-05-09T08:08:57.907Z,98809.05
2019-05-09T08:11:29.447Z,98802.97
2019-05-09T08:14:02.753Z,98807.52
2019-05-09T08:16:33.433Z,98799.17
2019-05-09T08:19:07.583Z,98798.78
2019-05-09T08:21:40.259Z,98803.98
2019-05-09T08:24:10.890Z,98797.05
2019-05-09T08:26:41.539Z,98800.38
2019-05-09T08:29:12.201Z,98791.53
2019-05-09T08:31:45.463Z,98790.55
2019-05-09T08:34:15.093Z,98785.28
2019-05-09T08:36:47.833Z,98777.80
2019-05-09T08:39:20.523Z,98775.27
2019-05-09T08:41:50.879Z,98774.81
2019-05-09T08:44:21.572Z,98783.64
2019-05-09T08:46:52.143Z,98778.47
2019-05-09T08:49:24.286Z,98785.81
2019-05-09T08:52:10.379Z,98795.78
2019-05-09T08:54:39.488Z,98793.68
2019-05-09T08:57:10.117Z,98800.12
2019-05-09T08:59:40.885Z,98799.41
2019-05-09T09:02:15.645Z,98791.41
2019-05-09T09:04:43.918Z,98794.09
2019-05-09T09:07:14.575Z,98785.48
2019-05-09T09:09:45.239Z,98790.18
2019-05-09T09:12:27.131Z,98793.61
2019-05-09T09:14:48.182Z,98803.16
2019-05-09T09:17:18.977Z,98799.99
2019-05-09T09:19:49.704Z,98806.81
2019-05-09T09:22:20.322Z,98810.36
2019-05-09T09:24:50.946Z,98812.13
2019-05-09T09:27:21.696Z,98811.77
2019-05-09T09:29:52.294Z,98798.57
2019-05-09T09:32:22.976Z,98809.23
2019-05-09T09:42:10.103Z,98807.27
2019-05-09T09:44:40.692Z,98805.57
2019-05-09T09:47:19.521Z,98803.28
2019-05-09T09:49:49.094Z,98800.17
2019-05-09T09:52:19.208Z,98803.44
2019-05-09T09:54:49.885Z,98808.66
2019-05-09T09:57:20.581Z,98813.33
2019-05-09T09:59:52.908Z,98823.48
2019-05-09T10:02:27.883Z,98815.22
2019-05-09T10:04:58.729Z,98818.19
2019-05-09T10:07:31.617Z,98809.59
2019-05-09T10:10:02.291Z,98808.40
2019-05-09T10:12:34.596Z,98807.67
2019-05-09T10:15:23.620Z,98809.92
2019-05-09T10:18:02.182Z,98815.05
2019-05-09T10:20:38.594Z,98817.45
2019-05-09T10:23:17.661Z,98811.47
2019-05-09T10:25:42.002Z,98816.71
2019-05-09T10:28:13.446Z,98816.77
2019-05-09T10:30:44.091Z,98819.09
2019-05-09T10:33:17.511Z,98823.47
2019-05-09T10:35:48.258Z,98824.72
2019-05-09T10:38:19.215Z,98833.74
2019-05-09T10:40:53.199Z,98831.20
2019-05-09T10:43:37.569Z,98826.92
2019-05-09T10:46:19.482Z,98826.42
2019-05-09T10:48:53.450Z,98819.49
2019-05-09T10:51:24.056Z,98816.12
2019-05-09T10:53:54.619Z,98821.88
2019-05-09T10:56:27.812Z,98822.49
2019-05-09T10:58:58.739Z,98832.11
2019-05-09T11:01:29.814Z,98834.65
2019-05-09T11:04:00.787Z,98839.36
2019-05-09T11:06:31.369Z,98839.55
2019-05-09T11:28:15.089Z,98827.13
2019-05-09T11:30:47.628Z,98831.80
2019-05-09T11:33:18.386Z,98829.84
2019-05-09T11:49:19.732Z,98831.97
2019-05-09T11:51:50.335Z,98828.06
2019-05-09T11:54:20.951Z,98838.40
2019-05-09T11:56:51.893Z,98835.86
2019-05-09T12:12:41.811Z,98834.23
2019-05-09T12:15:12.492Z,98818.72
2019-05-09T12:17:56.607Z,98815.42
2019-05-09T12:20:17.918Z,98814.08
2019-05-09T12:22:48.554Z,98821.33
2019-05-09T12:25:19.496Z,98820.53
2019-05-09T12:27:50.182Z,98823.09
2019-05-09T12:30:20.689Z,98829.38
2019-05-09T12:32:51.302Z,98834.64
2019-05-09T12:35:22.190Z,98835.35
2019-05-09T12:37:52.813Z,98821.84
2019-05-09T12:40:23.404Z,98822.98
2019-05-09T12:42:54.018Z,98822.06
2019-05-09T12:45:24.615Z,98834.10
2019-05-09T12:48:07.530Z,98845.02
2019-05-09T12:50:29.410Z,98842.67
2019-05-09T12:53:00.170Z,98844.10
2019-05-09T12:55:32.417Z,98844.94
2019-05-09T12:58:03.432Z,98855.22
2019-05-09T13:00:35.498Z,98859.97
2019-05-09T13:03:08.358Z,98861.70
2019-05-09T13:05:39.049Z,98866.16
2019-05-09T13:08:10.382Z,98863.78
2019-05-09T13:10:41.213Z,98860.88
2019-05-09T13:13:11.904Z,98857.37
2019-05-09T13:15:44.109Z,98860.66
2019-05-09T13:18:24.509Z,98869.11
2019-05-09T13:21:00.876Z,98868.61
2019-05-09T13:23:31.602Z,98860.16
2019-05-09T13:26:02.270Z,98877.57
2019-05-09T13:28:32.818Z,98891.29
2019-05-09T13:31:03.513Z,98889.83
2019-05-09T13:33:34.155Z,98894.46
2019-05-09T13:36:04.852Z,98893.94
2019-05-09T13:38:37.793Z,98910.72
2019-05-09T13:41:08.563Z,98915.05
2019-05-09T13:43:46.935Z,98918.03
2019-05-09T13:46:17.716Z,98917.41
2019-05-09T13:49:06.288Z,98930.08
2019-05-09T13:51:19.935Z,98932.48
2019-05-09T13:53:50.604Z,98940.72
2019-05-09T13:56:21.289Z,98935.89
2019-05-09T13:58:52.929Z,98935.84
2019-05-09T14:01:23.651Z,98946.14
2019-05-09T14:03:54.697Z,98947.06
2019-05-09T14:06:27.554Z,98954.27
2019-05-09T14:08:59.860Z,98943.99
2019-05-09T14:11:29.990Z,98951.50
2019-05-09T14:14:00.697Z,98950.91
2019-05-09T14:16:31.263Z,98949.68
2019-05-09T14:19:24.612Z,98944.50
2019-05-09T14:21:34.953Z,98951.80
2019-05-09T14:24:12.207Z,98940.91
2019-05-09T14:26:38.112Z,98935.87
2019-05-09T14:29:12.690Z,98939.17
2019-05-09T14:31:41.092Z,98942.84
2019-05-09T14:34:12.391Z,98939.05
2019-05-09T14:36:45.711Z,98942.93
2019-05-09T14:39:17.893Z,98951.37
2019-05-09T14:41:47.940Z,98955.59
2019-05-09T14:44:18.574Z,98945.31
2019-05-09T14:46:49.182Z,98948.19
2019-05-09T14:49:19.931Z,98943.79
2019-05-09T14:51:50.455Z,98936.27
2019-05-09T14:54:22.659Z,98937.51
2019-05-09T14:56:53.254Z,98937.53
2019-05-09T14:59:23.953Z,98942.12
2019-05-09T15:01:54.578Z,98949.02
2019-05-09T15:04:27.745Z,98952.52
2019-05-09T15:06:58.052Z,98951.30
2019-05-09T15:09:28.752Z,98950.14
2019-05-09T15:11:59.504Z,98946.22
2019-05-09T15:14:30.603Z,98954.98
2019-05-09T15:17:01.168Z,98954.98
2019-05-09T15:19:31.904Z,98955.69
2019-05-09T15:22:02.739Z,98960.75
2019-05-09T15:24:33.471Z,98964.34
2019-05-09T15:27:04.261Z,98971.44
2019-05-09T15:29:34.964Z,98970.20
2019-05-09T15:32:11.701Z,98973.69
2019-05-09T15:34:38.400Z,98979.45
2019-05-09T15:37:09.127Z,98981.59
2019-05-09T15:39:39.725Z,98986.67
2019-05-09T15:42:10.675Z,98993.49
2019-05-09T15:44:44.253Z,98999.31
2019-05-09T15:47:19.385Z,98992.36
2019-05-09T15:49:50.232Z,98996.59
2019-05-09T15:52:20.937Z,98989.37
2019-05-09T15:54:51.570Z,99000.78
2019-05-09T15:57:22.183Z,99002.92
2019-05-09T15:59:52.848Z,99005.50
2019-05-09T16:02:23.483Z,99008.08
2019-05-09T16:04:58.353Z,99013.50
2019-05-09T16:07:28.944Z,99023.80
2019-05-09T16:09:59.602Z,99019.98
2019-05-09T16:12:30.258Z,99017.62
2019-05-09T16:15:01.002Z,99021.83
2019-05-09T16:17:31.658Z,99019.79
2019-05-09T16:20:02.233Z,99017.22
2019-05-09T16:22:32.936Z,99022.36
2019-05-09T16:25:03.688Z,99025.57
2019-05-09T16:27:38.031Z,99027.21
2019-05-09T16:30:09.728Z,99028.02
2019-05-09T16:32:40.319Z,99034.17
2019-05-09T16:35:11.079Z,99042.09
2019-05-09T16:38:05.879Z,99054.00
2019-05-09T16:40:14.503Z,99052.52
2019-05-09T16:42:47.373Z,99054.91
2019-05-09T16:45:18.327Z,99065.02
2019-05-09T16:47:49.012Z,99071.55
2019-05-09T16:50:20.350Z,99065.61
2019-05-09T16:52:51.019Z,99071.64
2019-05-09T16:55:31.081Z,99077.89
2019-05-09T16:57:58.798Z,99079.42
2019-05-09T17:00:32.630Z,99071.84
2019-05-09T17:03:03.304Z,99079.42
2019-05-09T17:05:37.422Z,99082.30
2019-05-09T17:08:08.276Z,99082.80
2019-05-09T17:10:39.701Z,99083.53
2019-05-09T17:13:15.138Z,99082.93
2019-05-09T17:15:52.267Z,99086.50
2019-05-09T17:18:19.060Z,99097.39
2019-05-09T17:20:51.762Z,99105.05
2019-05-09T17:23:39.077Z,99105.64
2019-05-09T17:26:19.678Z,99108.45
2019-05-09T17:28:57.613Z,99113.91
2019-05-09T17:31:29.133Z,99114.74
2019-05-09T17:34:09.765Z,99119.84
2019-05-09T17:36:42.287Z,99123.29
2019-05-09T17:39:13.068Z,99129.78
2019-05-09T17:41:43.563Z,99130.23
2019-05-09T17:44:14.149Z,99128.55
2019-05-09T17:46:44.806Z,99135.80
2019-05-09T17:49:17.355Z,99135.58
2019-05-09T17:51:48.345Z,99140.84
2019-05-09T17:54:19.131Z,99142.67
2019-05-09T17:56:51.197Z,99151.64
2019-05-09T17:59:21.842Z,99149.61
2019-05-09T18:01:52.460Z,99147.52
2019-05-09T18:04:24.552Z,99152.56
2019-05-09T18:06:58.195Z,99155.47
2019-05-09T18:09:28.508Z,99160.63
2019-05-09T18:12:02.495Z,99158.80
2019-05-09T18:14:33.284Z,99154.33
2019-05-09T18:17:09.129Z,99154.80
2019-05-09T18:19:39.593Z,99153.02
2019-05-09T18:22:14.610Z,99155.77
2019-05-09T18:24:48.231Z,99158.30
2019-05-09T18:27:19.116Z,99162.16
2019-05-09T18:29:51.176Z,99160.06
2019-05-09T18:32:41.131Z,99160.45
2019-05-09T18:35:16.209Z,99157.47
2019-05-09T18:37:48.132Z,99163.05
2019-05-09T18:40:23.246Z,99166.48
2019-05-09T18:42:53.997Z,99162.36
2019-05-09T18:45:25.126Z,99163.77
2019-05-09T18:47:58.019Z,99168.58
2019-05-09T18:50:28.282Z,99165.60
2019-05-09T18:52:59.055Z,99166.29
2019-05-09T18:55:32.570Z,99172.73
2019-05-09T18:58:03.256Z,99163.50
2019-05-09T19:00:40.645Z,99161.28
2019-05-09T19:03:15.250Z,99166.10
2019-05-09T19:05:56.490Z,99160.30
2019-05-09T19:08:27.050Z,99164.11
2019-05-09T19:10:58.395Z,99159.30
2019-05-09T19:13:30.595Z,99159.69
2019-05-09T19:16:17.208Z,99161.90
2019-05-09T19:18:50.996Z,99158.47
2019-05-09T19:21:30.523Z,99154.16
2019-05-09T19:24:04.299Z,99156.81
2019-05-09T19:26:38.075Z,99157.69
2019-05-09T19:29:13.072Z,99164.28
2019-05-09T19:31:43.427Z,99151.12
2019-05-09T19:34:19.561Z,99154.25
2019-05-09T19:36:51.103Z,99151.12
2019-05-09T19:39:23.347Z,99149.55
2019-05-09T19:41:54.107Z,99150.88
2019-05-09T19:44:25.262Z,99148.33
2019-05-09T19:46:56.528Z,99153.03
2019-05-09T19:49:27.136Z,99167.98
2019-05-09T19:51:57.752Z,99167.41
2019-05-09T19:54:28.439Z,99169.50
2019-05-09T19:57:00.431Z,99167.52
2019-05-09T19:59:31.337Z,99172.42
2019-05-09T20:02:02.219Z,99171.65
2019-05-09T20:04:32.863Z,99170.72
2019-05-09T20:07:04.033Z,99169.05
2019-05-09T20:09:36.213Z,99175.44
2019-05-09T20:12:10.615Z,99185.36
2019-05-09T20:14:44.528Z,99186.80
2019-05-09T20:17:15.295Z,99189.37
2019-05-09T20:19:45.879Z,99190.33
2019-05-09T20:22:17.872Z,99196.87
2019-05-09T20:24:48.610Z,99205.53
2019-05-09T20:27:19.224Z,99201.22
2019-05-09T20:29:49.878Z,99197.27
2019-05-09T20:32:20.639Z,99203.56
2019-05-09T20:34:52.679Z,99198.88
2019-05-09T20:37:23.584Z,99206.88
2019-05-09T20:39:54.375Z,99215.73
2019-05-09T20:42:25.157Z,99215.41
2019-05-09T20:44:59.344Z,99206.22
2019-05-09T20:47:30.224Z,99215.87
2019-05-09T20:50:01.111Z,99213.52
2019-05-09T20:52:31.877Z,99207.93
2019-05-09T20:55:02.660Z,99214.08
2019-05-09T20:57:34.508Z,99217.39
2019-05-09T21:00:06.890Z,99215.22
2019-05-09T21:02:37.796Z,99212.36
2019-05-09T21:05:08.747Z,99215.03
2019-05-09T21:07:42.342Z,99217.20
2019-05-09T21:10:13.623Z,99217.58
2019-05-09T21:12:45.729Z,99213.02
2019-05-09T21:15:16.512Z,99219.19
2019-05-09T21:17:47.232Z,99214.34
2019-05-09T21:20:18.271Z,99218.08
2019-05-09T21:22:51.730Z,99218.98
2019-05-09T21:25:25.219Z,99229.27
2019-05-09T21:27:56.478Z,99239.55
2019-05-09T21:30:28.614Z,99244.05
2019-05-09T21:32:59.567Z,99236.31
2019-05-09T21:35:30.245Z,99238.61
2019-05-09T21:38:00.965Z,99239.42
2019-05-09T21:40:31.620Z,99248.97
2019-05-09T21:43:02.562Z,99249.25
2019-05-09T21:45:33.575Z,99250.02
2019-05-09T21:48:04.201Z,99250.41
2019-05-09T21:50:39.084Z,99249.16
2019-05-09T21:53:09.678Z,99249.54
2019-05-09T21:55:40.295Z,99251.56
2019-05-09T21:58:13.049Z,99243.89
2019-05-09T22:00:49.280Z,99242.59
2019-05-09T22:03:20.493Z,99235.23
2019-05-09T22:05:51.233Z,99236.59
2019-05-09T22:08:23.404Z,99234.30
2019-05-09T22:10:54.214Z,99235.90
2019-05-09T22:13:24.878Z,99232.66
2019-05-09T22:15:55.526Z,99230.81
2019-05-09T22:18:26.143Z,99234.54
2019-05-09T22:20:56.861Z,99240.38
2019-05-09T22:23:27.591Z,99232.69
2019-05-09T22:25:58.346Z,99238.95
2019-05-09T22:28:28.928Z,99239.95
2019-05-09T22:30:59.532Z,99245.34
2019-05-09T22:33:30.223Z,99243.78
2019-05-09T22:36:00.941Z,99246.39
2019-05-09T22:38:31.566Z,99244.97
2019-05-09T22:41:02.185Z,99249.80
2019-05-09T22:43:32.791Z,99263.62
2019-05-09T22:46:03.477Z,99260.08
2019-05-09T22:48:34.232Z,99265.36
2019-05-09T22:51:04.889Z,99261.08
2019-05-09T22:53:35.583Z,99266.94
2019-05-09T22:56:06.171Z,99259.37
2019-05-09T22:58:39.949Z,99264.77
2019-05-09T23:01:10.580Z,99267.13
2019-05-09T23:03:41.259Z,99270.47
2019-05-09T23:06:14.570Z,99268.11
2019-05-09T23:08:45.170Z,99267.15
2019-05-09T23:11:15.751Z,99271.06
2019-05-09T23:13:52.509Z,99271.06
2019-05-09T23:16:24.829Z,99264.52
2019-05-09T23:18:55.860Z,99265.17
2019-05-09T23:21:28.292Z,99269.95
2019-05-09T23:24:01.798Z,99270.20
2019-05-09T23:26:34.273Z,99264.95
2019-05-09T23:29:08.793Z,99247.11
2019-05-09T23:31:41.082Z,99242.73
2019-05-09T23:34:11.666Z,99239.81
2019-05-09T23:36:42.407Z,99241.88
2019-05-09T23:39:17.448Z,99243.94
2019-05-09T23:41:48.066Z,99242.36
2019-05-09T23:44:18.687Z,99243.41
2019-05-09T23:46:49.277Z,99238.78
2019-05-09T23:49:23.399Z,99234.62
2019-05-09T23:51:54.027Z,99238.78
2019-05-09T23:54:46.600Z,99237.27
2019-05-09T23:57:33.270Z,99238.59
